sensor_id;sensor_type;location;lat;lon;timestamp;P1;durP1;ratioP1;P2;durP2;ratioP2
16837;SDS011;19510;54.486;9.046;2023-07-30T00:01:58;6.78;;;2.83;;
16837;SDS011;19510;54.486;9.046;2023-07-30T00:04:24;5.15;;;2.38;;
16837;SDS011;19510;54.486;9.046;2023-07-30T00:06:50;5.57;;;2.50;;
16837;SDS011;19510;54.486;9.046;2023-07-30T00:09:16;6.97;;;2.85;;
16837;SDS011;19510;54.486;9.046;2023-07-30T00:11:41;9.90;;;3.25;;
16837;SDS011;19510;54.486;9.046;2023-07-30T00:14:07;8.07;;;2.60;;
16837;SDS011;19510;54.486;9.046;2023-07-30T00:16:33;5.43;;;2.42;;
16837;SDS011;19510;54.486;9.046;2023-07-30T00:18:59;7.10;;;2.45;;
16837;SDS011;19510;54.486;9.046;2023-07-30T00:21:24;10.13;;;2.65;;
16837;SDS011;19510;54.486;9.046;2023-07-30T00:23:50;5.80;;;2.47;;
16837;SDS011;19510;54.486;9.046;2023-07-30T00:26:16;14.95;;;3.72;;
16837;SDS011;19510;54.486;9.046;2023-07-30T00:28:41;5.90;;;2.40;;
16837;SDS011;19510;54.486;9.046;2023-07-30T00:31:07;7.53;;;2.38;;
16837;SDS011;19510;54.486;9.046;2023-07-30T00:33:33;7.47;;;2.65;;
16837;SDS011;19510;54.486;9.046;2023-07-30T00:35:58;5.03;;;2.28;;
16837;SDS011;19510;54.486;9.046;2023-07-30T00:38:24;6.72;;;2.60;;
16837;SDS011;19510;54.486;9.046;2023-07-30T00:40:50;5.82;;;2.38;;
16837;SDS011;19510;54.486;9.046;2023-07-30T00:43:15;4.13;;;2.25;;
16837;SDS011;19510;54.486;9.046;2023-07-30T00:45:42;5.40;;;2.25;;
16837;SDS011;19510;54.486;9.046;2023-07-30T00:48:12;3.65;;;2.40;;
16837;SDS011;19510;54.486;9.046;2023-07-30T00:50:39;6.07;;;2.60;;
16837;SDS011;19510;54.486;9.046;2023-07-30T00:53:07;6.43;;;2.70;;
16837;SDS011;19510;54.486;9.046;2023-07-30T00:55:34;4.20;;;2.45;;
16837;SDS011;19510;54.486;9.046;2023-07-30T00:58:00;8.40;;;2.40;;
16837;SDS011;19510;54.486;9.046;2023-07-30T01:00:27;5.93;;;2.80;;
16837;SDS011;19510;54.486;9.046;2023-07-30T01:02:54;7.03;;;2.80;;
16837;SDS011;19510;54.486;9.046;2023-07-30T01:05:20;5.40;;;2.63;;
16837;SDS011;19510;54.486;9.046;2023-07-30T01:07:46;6.82;;;3.17;;
16837;SDS011;19510;54.486;9.046;2023-07-30T01:10:12;10.18;;;2.92;;
16837;SDS011;19510;54.486;9.046;2023-07-30T01:12:38;4.15;;;2.58;;
16837;SDS011;19510;54.486;9.046;2023-07-30T01:15:05;8.05;;;2.45;;
16837;SDS011;19510;54.486;9.046;2023-07-30T01:17:33;6.22;;;3.00;;
16837;SDS011;19510;54.486;9.046;2023-07-30T01:19:59;9.40;;;2.88;;
16837;SDS011;19510;54.486;9.046;2023-07-30T01:22:24;5.40;;;2.53;;
16837;SDS011;19510;54.486;9.046;2023-07-30T01:24:50;4.50;;;2.28;;
16837;SDS011;19510;54.486;9.046;2023-07-30T01:27:16;4.72;;;2.13;;
16837;SDS011;19510;54.486;9.046;2023-07-30T01:29:50;6.70;;;2.47;;
16837;SDS011;19510;54.486;9.046;2023-07-30T01:32:19;6.82;;;2.55;;
16837;SDS011;19510;54.486;9.046;2023-07-30T01:34:54;6.13;;;2.50;;
16837;SDS011;19510;54.486;9.046;2023-07-30T01:37:21;5.07;;;2.58;;
16837;SDS011;19510;54.486;9.046;2023-07-30T01:39:48;5.20;;;2.45;;
16837;SDS011;19510;54.486;9.046;2023-07-30T01:42:14;7.20;;;2.95;;
16837;SDS011;19510;54.486;9.046;2023-07-30T01:44:40;5.90;;;2.60;;
16837;SDS011;19510;54.486;9.046;2023-07-30T01:47:06;6.20;;;2.20;;
16837;SDS011;19510;54.486;9.046;2023-07-30T01:49:32;6.63;;;3.25;;
16837;SDS011;19510;54.486;9.046;2023-07-30T01:51:57;8.30;;;2.88;;
16837;SDS011;19510;54.486;9.046;2023-07-30T01:54:23;6.38;;;2.65;;
16837;SDS011;19510;54.486;9.046;2023-07-30T01:56:49;8.15;;;2.60;;
16837;SDS011;19510;54.486;9.046;2023-07-30T01:59:15;8.55;;;3.05;;
16837;SDS011;19510;54.486;9.046;2023-07-30T02:01:44;3.75;;;2.50;;
16837;SDS011;19510;54.486;9.046;2023-07-30T02:04:09;5.43;;;2.75;;
16837;SDS011;19510;54.486;9.046;2023-07-30T02:06:35;9.70;;;2.92;;
16837;SDS011;19510;54.486;9.046;2023-07-30T02:09:01;8.57;;;3.45;;
16837;SDS011;19510;54.486;9.046;2023-07-30T02:11:27;5.93;;;3.03;;
16837;SDS011;19510;54.486;9.046;2023-07-30T02:13:53;15.18;;;3.40;;
16837;SDS011;19510;54.486;9.046;2023-07-30T02:16:19;6.70;;;3.72;;
16837;SDS011;19510;54.486;9.046;2023-07-30T02:18:45;9.80;;;3.42;;
16837;SDS011;19510;54.486;9.046;2023-07-30T02:21:12;6.00;;;2.88;;
16837;SDS011;19510;54.486;9.046;2023-07-30T02:23:37;9.73;;;3.33;;
16837;SDS011;19510;54.486;9.046;2023-07-30T02:26:03;6.70;;;3.35;;
16837;SDS011;19510;54.486;9.046;2023-07-30T02:28:29;8.38;;;3.55;;
16837;SDS011;19510;54.486;9.046;2023-07-30T02:30:54;8.38;;;3.35;;
16837;SDS011;19510;54.486;9.046;2023-07-30T02:33:22;8.02;;;3.10;;
16837;SDS011;19510;54.486;9.046;2023-07-30T02:35:48;7.18;;;3.10;;
16837;SDS011;19510;54.486;9.046;2023-07-30T02:38:13;9.57;;;4.45;;
16837;SDS011;19510;54.486;9.046;2023-07-30T02:40:39;9.27;;;3.75;;
16837;SDS011;19510;54.486;9.046;2023-07-30T02:43:05;6.20;;;3.60;;
16837;SDS011;19510;54.486;9.046;2023-07-30T02:45:31;10.20;;;3.30;;
16837;SDS011;19510;54.486;9.046;2023-07-30T02:47:56;5.53;;;3.60;;
16837;SDS011;19510;54.486;9.046;2023-07-30T02:50:22;7.97;;;3.17;;
16837;SDS011;19510;54.486;9.046;2023-07-30T02:52:48;10.18;;;3.65;;
16837;SDS011;19510;54.486;9.046;2023-07-30T02:55:13;8.93;;;3.15;;
16837;SDS011;19510;54.486;9.046;2023-07-30T02:57:41;10.32;;;3.88;;
16837;SDS011;19510;54.486;9.046;2023-07-30T03:00:07;9.77;;;3.15;;
16837;SDS011;19510;54.486;9.046;2023-07-30T03:02:33;7.72;;;3.33;;
16837;SDS011;19510;54.486;9.046;2023-07-30T03:04:59;8.50;;;3.55;;
16837;SDS011;19510;54.486;9.046;2023-07-30T03:07:25;8.73;;;3.90;;
16837;SDS011;19510;54.486;9.046;2023-07-30T03:09:51;7.45;;;3.60;;
16837;SDS011;19510;54.486;9.046;2023-07-30T03:12:17;8.43;;;3.75;;
16837;SDS011;19510;54.486;9.046;2023-07-30T03:14:43;7.35;;;4.55;;
16837;SDS011;19510;54.486;9.046;2023-07-30T03:17:08;8.63;;;4.32;;
16837;SDS011;19510;54.486;9.046;2023-07-30T03:19:34;10.98;;;3.95;;
16837;SDS011;19510;54.486;9.046;2023-07-30T03:22:00;10.43;;;4.18;;
16837;SDS011;19510;54.486;9.046;2023-07-30T03:24:25;6.18;;;3.97;;
16837;SDS011;19510;54.486;9.046;2023-07-30T03:26:51;9.43;;;4.20;;
16837;SDS011;19510;54.486;9.046;2023-07-30T03:29:17;7.70;;;3.88;;
16837;SDS011;19510;54.486;9.046;2023-07-30T03:31:42;10.60;;;4.07;;
16837;SDS011;19510;54.486;9.046;2023-07-30T03:34:08;9.85;;;4.13;;
16837;SDS011;19510;54.486;9.046;2023-07-30T03:36:34;11.50;;;4.35;;
16837;SDS011;19510;54.486;9.046;2023-07-30T03:38:59;8.10;;;4.18;;
16837;SDS011;19510;54.486;9.046;2023-07-30T03:41:25;8.50;;;3.53;;
16837;SDS011;19510;54.486;9.046;2023-07-30T03:43:51;14.18;;;4.32;;
16837;SDS011;19510;54.486;9.046;2023-07-30T03:46:16;9.55;;;4.05;;
16837;SDS011;19510;54.486;9.046;2023-07-30T03:48:42;10.18;;;4.47;;
16837;SDS011;19510;54.486;9.046;2023-07-30T03:51:08;11.40;;;4.80;;
16837;SDS011;19510;54.486;9.046;2023-07-30T03:53:34;8.85;;;4.53;;
16837;SDS011;19510;54.486;9.046;2023-07-30T03:55:59;9.25;;;4.30;;
16837;SDS011;19510;54.486;9.046;2023-07-30T03:58:26;15.52;;;4.63;;
16837;SDS011;19510;54.486;9.046;2023-07-30T04:00:51;12.52;;;4.95;;
16837;SDS011;19510;54.486;9.046;2023-07-30T04:03:17;12.90;;;4.70;;
16837;SDS011;19510;54.486;9.046;2023-07-30T04:05:43;11.25;;;4.47;;
16837;SDS011;19510;54.486;9.046;2023-07-30T04:08:08;10.52;;;4.38;;
16837;SDS011;19510;54.486;9.046;2023-07-30T04:10:34;9.45;;;4.57;;
16837;SDS011;19510;54.486;9.046;2023-07-30T04:13:00;13.10;;;5.07;;
16837;SDS011;19510;54.486;9.046;2023-07-30T04:15:26;10.48;;;4.78;;
16837;SDS011;19510;54.486;9.046;2023-07-30T04:17:53;6.07;;;3.88;;
16837;SDS011;19510;54.486;9.046;2023-07-30T04:20:19;9.10;;;4.28;;
16837;SDS011;19510;54.486;9.046;2023-07-30T04:22:44;8.88;;;3.97;;
16837;SDS011;19510;54.486;9.046;2023-07-30T04:25:10;9.48;;;3.90;;
16837;SDS011;19510;54.486;9.046;2023-07-30T04:27:36;10.25;;;4.05;;
16837;SDS011;19510;54.486;9.046;2023-07-30T04:30:05;7.75;;;4.20;;
16837;SDS011;19510;54.486;9.046;2023-07-30T04:32:31;8.20;;;4.22;;
16837;SDS011;19510;54.486;9.046;2023-07-30T04:34:57;10.10;;;4.18;;
16837;SDS011;19510;54.486;9.046;2023-07-30T04:37:23;9.05;;;3.83;;
16837;SDS011;19510;54.486;9.046;2023-07-30T04:39:48;9.63;;;4.45;;
16837;SDS011;19510;54.486;9.046;2023-07-30T04:42:14;11.32;;;4.43;;
16837;SDS011;19510;54.486;9.046;2023-07-30T04:44:40;6.93;;;3.50;;
16837;SDS011;19510;54.486;9.046;2023-07-30T04:47:06;9.43;;;3.72;;
16837;SDS011;19510;54.486;9.046;2023-07-30T04:49:32;9.65;;;4.47;;
16837;SDS011;19510;54.486;9.046;2023-07-30T04:51:58;6.20;;;3.30;;
16837;SDS011;19510;54.486;9.046;2023-07-30T04:54:24;7.22;;;3.65;;
16837;SDS011;19510;54.486;9.046;2023-07-30T04:56:49;11.15;;;4.07;;
16837;SDS011;19510;54.486;9.046;2023-07-30T04:59:15;8.00;;;3.67;;
16837;SDS011;19510;54.486;9.046;2023-07-30T05:01:41;7.78;;;3.92;;
16837;SDS011;19510;54.486;9.046;2023-07-30T05:04:06;12.38;;;3.88;;
16837;SDS011;19510;54.486;9.046;2023-07-30T05:06:32;5.78;;;4.00;;
16837;SDS011;19510;54.486;9.046;2023-07-30T05:08:58;8.95;;;4.07;;
16837;SDS011;19510;54.486;9.046;2023-07-30T05:11:23;9.05;;;3.70;;
16837;SDS011;19510;54.486;9.046;2023-07-30T05:13:49;8.48;;;4.13;;
16837;SDS011;19510;54.486;9.046;2023-07-30T05:16:15;6.68;;;3.58;;
16837;SDS011;19510;54.486;9.046;2023-07-30T05:18:41;10.57;;;4.82;;
16837;SDS011;19510;54.486;9.046;2023-07-30T05:21:06;8.88;;;4.25;;
16837;SDS011;19510;54.486;9.046;2023-07-30T05:23:32;7.47;;;3.75;;
16837;SDS011;19510;54.486;9.046;2023-07-30T05:25:58;9.23;;;4.03;;
16837;SDS011;19510;54.486;9.046;2023-07-30T05:28:23;12.02;;;4.80;;
16837;SDS011;19510;54.486;9.046;2023-07-30T05:30:49;6.60;;;3.55;;
16837;SDS011;19510;54.486;9.046;2023-07-30T05:33:15;10.25;;;3.65;;
16837;SDS011;19510;54.486;9.046;2023-07-30T05:35:40;11.07;;;4.18;;
16837;SDS011;19510;54.486;9.046;2023-07-30T05:38:06;10.10;;;3.90;;
16837;SDS011;19510;54.486;9.046;2023-07-30T05:40:32;8.60;;;3.95;;
16837;SDS011;19510;54.486;9.046;2023-07-30T05:42:58;9.50;;;4.05;;
16837;SDS011;19510;54.486;9.046;2023-07-30T05:45:25;10.05;;;3.63;;
16837;SDS011;19510;54.486;9.046;2023-07-30T05:47:52;9.98;;;3.60;;
16837;SDS011;19510;54.486;9.046;2023-07-30T05:50:17;11.95;;;4.75;;
16837;SDS011;19510;54.486;9.046;2023-07-30T05:52:43;9.85;;;3.67;;
16837;SDS011;19510;54.486;9.046;2023-07-30T05:55:09;11.77;;;3.40;;
16837;SDS011;19510;54.486;9.046;2023-07-30T05:57:35;7.68;;;3.50;;
16837;SDS011;19510;54.486;9.046;2023-07-30T06:00:01;15.60;;;4.40;;
16837;SDS011;19510;54.486;9.046;2023-07-30T06:02:27;12.20;;;4.40;;
16837;SDS011;19510;54.486;9.046;2023-07-30T06:04:53;17.10;;;5.50;;
16837;SDS011;19510;54.486;9.046;2023-07-30T06:07:18;13.73;;;4.43;;
16837;SDS011;19510;54.486;9.046;2023-07-30T06:09:44;12.10;;;4.10;;
16837;SDS011;19510;54.486;9.046;2023-07-30T06:12:10;10.30;;;4.20;;
16837;SDS011;19510;54.486;9.046;2023-07-30T06:14:36;12.73;;;3.72;;
16837;SDS011;19510;54.486;9.046;2023-07-30T06:17:01;13.13;;;3.90;;
16837;SDS011;19510;54.486;9.046;2023-07-30T06:22:49;14.15;;;4.03;;
16837;SDS011;19510;54.486;9.046;2023-07-30T06:25:15;17.08;;;4.47;;
16837;SDS011;19510;54.486;9.046;2023-07-30T06:31:03;13.30;;;4.18;;
16837;SDS011;19510;54.486;9.046;2023-07-30T06:33:29;12.38;;;4.30;;
16837;SDS011;19510;54.486;9.046;2023-07-30T06:35:55;14.27;;;3.72;;
16837;SDS011;19510;54.486;9.046;2023-07-30T06:38:21;13.45;;;4.15;;
16837;SDS011;19510;54.486;9.046;2023-07-30T06:40:47;9.77;;;3.60;;
16837;SDS011;19510;54.486;9.046;2023-07-30T06:43:12;9.60;;;4.43;;
16837;SDS011;19510;54.486;9.046;2023-07-30T06:45:38;10.23;;;4.65;;
16837;SDS011;19510;54.486;9.046;2023-07-30T06:48:04;11.23;;;4.25;;
16837;SDS011;19510;54.486;9.046;2023-07-30T06:50:30;11.73;;;3.95;;
16837;SDS011;19510;54.486;9.046;2023-07-30T06:52:55;13.35;;;4.13;;
16837;SDS011;19510;54.486;9.046;2023-07-30T06:55:21;10.93;;;4.55;;
16837;SDS011;19510;54.486;9.046;2023-07-30T06:57:47;10.88;;;4.00;;
16837;SDS011;19510;54.486;9.046;2023-07-30T07:00:13;10.10;;;3.67;;
16837;SDS011;19510;54.486;9.046;2023-07-30T07:02:44;10.95;;;3.75;;
16837;SDS011;19510;54.486;9.046;2023-07-30T07:05:10;13.25;;;5.07;;
16837;SDS011;19510;54.486;9.046;2023-07-30T07:07:36;11.23;;;4.40;;
16837;SDS011;19510;54.486;9.046;2023-07-30T07:10:01;12.93;;;3.97;;
16837;SDS011;19510;54.486;9.046;2023-07-30T07:12:27;9.75;;;4.22;;
16837;SDS011;19510;54.486;9.046;2023-07-30T07:14:53;12.80;;;4.10;;
16837;SDS011;19510;54.486;9.046;2023-07-30T07:17:23;11.23;;;4.18;;
16837;SDS011;19510;54.486;9.046;2023-07-30T07:19:51;9.70;;;4.28;;
16837;SDS011;19510;54.486;9.046;2023-07-30T07:22:17;14.07;;;4.95;;
16837;SDS011;19510;54.486;9.046;2023-07-30T07:24:43;8.00;;;3.70;;
16837;SDS011;19510;54.486;9.046;2023-07-30T07:27:09;17.35;;;4.70;;
16837;SDS011;19510;54.486;9.046;2023-07-30T07:29:35;16.30;;;4.20;;
16837;SDS011;19510;54.486;9.046;2023-07-30T07:32:01;11.82;;;3.83;;
16837;SDS011;19510;54.486;9.046;2023-07-30T07:34:26;14.02;;;3.78;;
16837;SDS011;19510;54.486;9.046;2023-07-30T07:36:52;10.88;;;4.43;;
16837;SDS011;19510;54.486;9.046;2023-07-30T07:39:18;12.95;;;3.95;;
16837;SDS011;19510;54.486;9.046;2023-07-30T07:41:44;10.13;;;3.92;;
16837;SDS011;19510;54.486;9.046;2023-07-30T07:44:10;11.48;;;3.83;;
16837;SDS011;19510;54.486;9.046;2023-07-30T07:46:36;8.30;;;3.55;;
16837;SDS011;19510;54.486;9.046;2023-07-30T07:49:04;16.48;;;4.78;;
16837;SDS011;19510;54.486;9.046;2023-07-30T07:51:30;11.35;;;4.32;;
16837;SDS011;19510;54.486;9.046;2023-07-30T07:53:57;7.47;;;2.88;;
16837;SDS011;19510;54.486;9.046;2023-07-30T07:56:23;11.55;;;3.33;;
16837;SDS011;19510;54.486;9.046;2023-07-30T07:58:48;10.60;;;3.33;;
16837;SDS011;19510;54.486;9.046;2023-07-30T08:01:14;9.93;;;3.60;;
16837;SDS011;19510;54.486;9.046;2023-07-30T08:03:40;11.55;;;3.42;;
16837;SDS011;19510;54.486;9.046;2023-07-30T08:06:06;9.50;;;3.03;;
16837;SDS011;19510;54.486;9.046;2023-07-30T08:08:31;12.48;;;3.80;;
16837;SDS011;19510;54.486;9.046;2023-07-30T08:10:57;11.68;;;3.45;;
16837;SDS011;19510;54.486;9.046;2023-07-30T08:13:23;13.55;;;3.85;;
16837;SDS011;19510;54.486;9.046;2023-07-30T08:15:49;12.18;;;2.95;;
16837;SDS011;19510;54.486;9.046;2023-07-30T08:18:14;10.10;;;3.20;;
16837;SDS011;19510;54.486;9.046;2023-07-30T08:20:40;10.60;;;4.15;;
16837;SDS011;19510;54.486;9.046;2023-07-30T08:23:06;13.65;;;3.78;;
16837;SDS011;19510;54.486;9.046;2023-07-30T08:25:32;16.30;;;3.33;;
16837;SDS011;19510;54.486;9.046;2023-07-30T08:27:58;8.02;;;2.83;;
16837;SDS011;19510;54.486;9.046;2023-07-30T08:30:23;11.93;;;3.13;;
16837;SDS011;19510;54.486;9.046;2023-07-30T08:32:49;13.07;;;3.45;;
16837;SDS011;19510;54.486;9.046;2023-07-30T08:35:15;8.82;;;3.15;;
16837;SDS011;19510;54.486;9.046;2023-07-30T08:37:40;16.75;;;3.38;;
16837;SDS011;19510;54.486;9.046;2023-07-30T08:40:06;11.60;;;3.58;;
16837;SDS011;19510;54.486;9.046;2023-07-30T08:42:33;10.38;;;3.33;;
16837;SDS011;19510;54.486;9.046;2023-07-30T08:44:59;14.02;;;3.60;;
16837;SDS011;19510;54.486;9.046;2023-07-30T08:47:25;7.72;;;3.35;;
16837;SDS011;19510;54.486;9.046;2023-07-30T08:49:50;12.00;;;3.60;;
16837;SDS011;19510;54.486;9.046;2023-07-30T08:52:16;9.98;;;3.03;;
16837;SDS011;19510;54.486;9.046;2023-07-30T08:54:45;13.40;;;3.78;;
16837;SDS011;19510;54.486;9.046;2023-07-30T08:57:12;9.88;;;3.60;;
16837;SDS011;19510;54.486;9.046;2023-07-30T08:59:42;11.63;;;3.28;;
16837;SDS011;19510;54.486;9.046;2023-07-30T09:02:18;12.25;;;4.25;;
16837;SDS011;19510;54.486;9.046;2023-07-30T09:04:49;14.35;;;3.75;;
16837;SDS011;19510;54.486;9.046;2023-07-30T09:07:22;9.60;;;3.67;;
16837;SDS011;19510;54.486;9.046;2023-07-30T09:09:49;14.63;;;3.55;;
16837;SDS011;19510;54.486;9.046;2023-07-30T09:12:16;12.23;;;4.78;;
16837;SDS011;19510;54.486;9.046;2023-07-30T09:14:41;18.48;;;5.32;;
16837;SDS011;19510;54.486;9.046;2023-07-30T09:17:16;14.68;;;4.15;;
16837;SDS011;19510;54.486;9.046;2023-07-30T09:19:42;15.20;;;4.70;;
16837;SDS011;19510;54.486;9.046;2023-07-30T09:22:08;10.63;;;3.75;;
16837;SDS011;19510;54.486;9.046;2023-07-30T09:24:34;20.05;;;4.82;;
16837;SDS011;19510;54.486;9.046;2023-07-30T09:27:03;9.95;;;3.38;;
16837;SDS011;19510;54.486;9.046;2023-07-30T09:29:29;10.75;;;3.95;;
16837;SDS011;19510;54.486;9.046;2023-07-30T09:31:55;11.02;;;3.33;;
16837;SDS011;19510;54.486;9.046;2023-07-30T09:34:22;14.60;;;4.13;;
16837;SDS011;19510;54.486;9.046;2023-07-30T09:36:55;12.50;;;3.72;;
16837;SDS011;19510;54.486;9.046;2023-07-30T09:39:23;10.70;;;3.53;;
16837;SDS011;19510;54.486;9.046;2023-07-30T09:41:50;17.88;;;3.75;;
16837;SDS011;19510;54.486;9.046;2023-07-30T09:44:18;10.65;;;3.25;;
16837;SDS011;19510;54.486;9.046;2023-07-30T09:46:45;13.25;;;3.70;;
16837;SDS011;19510;54.486;9.046;2023-07-30T09:49:15;11.65;;;3.13;;
16837;SDS011;19510;54.486;9.046;2023-07-30T09:51:41;11.77;;;3.10;;
16837;SDS011;19510;54.486;9.046;2023-07-30T09:54:07;7.53;;;2.60;;
16837;SDS011;19510;54.486;9.046;2023-07-30T09:56:38;8.60;;;2.60;;
16837;SDS011;19510;54.486;9.046;2023-07-30T09:59:09;9.40;;;2.75;;
16837;SDS011;19510;54.486;9.046;2023-07-30T10:01:46;9.00;;;2.53;;
16837;SDS011;19510;54.486;9.046;2023-07-30T10:04:19;9.50;;;2.42;;
16837;SDS011;19510;54.486;9.046;2023-07-30T10:06:49;9.23;;;2.45;;
16837;SDS011;19510;54.486;9.046;2023-07-30T10:09:20;10.02;;;2.13;;
16837;SDS011;19510;54.486;9.046;2023-07-30T10:11:48;9.98;;;3.17;;
16837;SDS011;19510;54.486;9.046;2023-07-30T10:14:16;9.60;;;2.42;;
16837;SDS011;19510;54.486;9.046;2023-07-30T10:16:52;8.15;;;3.70;;
16837;SDS011;19510;54.486;9.046;2023-07-30T10:19:23;8.65;;;2.33;;
16837;SDS011;19510;54.486;9.046;2023-07-30T10:22:38;6.78;;;1.80;;
16837;SDS011;19510;54.486;9.046;2023-07-30T10:24:39;6.63;;;2.20;;
16837;SDS011;19510;54.486;9.046;2023-07-30T10:27:23;11.20;;;1.85;;
16837;SDS011;19510;54.486;9.046;2023-07-30T10:29:50;8.30;;;2.17;;
16837;SDS011;19510;54.486;9.046;2023-07-30T10:32:40;8.18;;;2.50;;
16837;SDS011;19510;54.486;9.046;2023-07-30T10:35:35;8.82;;;2.83;;
16837;SDS011;19510;54.486;9.046;2023-07-30T10:38:12;15.88;;;2.30;;
16837;SDS011;19510;54.486;9.046;2023-07-30T10:40:40;10.40;;;2.78;;
16837;SDS011;19510;54.486;9.046;2023-07-30T10:43:16;5.85;;;2.13;;
16837;SDS011;19510;54.486;9.046;2023-07-30T10:45:51;6.57;;;1.95;;
16837;SDS011;19510;54.486;9.046;2023-07-30T10:48:17;6.70;;;2.13;;
16837;SDS011;19510;54.486;9.046;2023-07-30T10:50:43;6.80;;;1.98;;
16837;SDS011;19510;54.486;9.046;2023-07-30T10:53:13;8.63;;;2.28;;
16837;SDS011;19510;54.486;9.046;2023-07-30T10:55:41;11.93;;;2.60;;
16837;SDS011;19510;54.486;9.046;2023-07-30T10:58:07;11.02;;;2.40;;
16837;SDS011;19510;54.486;9.046;2023-07-30T11:00:33;7.45;;;2.03;;
16837;SDS011;19510;54.486;9.046;2023-07-30T11:02:59;12.10;;;2.03;;
16837;SDS011;19510;54.486;9.046;2023-07-30T11:05:24;8.43;;;1.98;;
16837;SDS011;19510;54.486;9.046;2023-07-30T11:07:51;11.40;;;2.33;;
16837;SDS011;19510;54.486;9.046;2023-07-30T11:16:54;7.55;;;2.13;;
16837;SDS011;19510;54.486;9.046;2023-07-30T11:19:24;5.68;;;1.50;;
16837;SDS011;19510;54.486;9.046;2023-07-30T11:21:55;21.73;;;3.42;;
16837;SDS011;19510;54.486;9.046;2023-07-30T11:24:22;7.43;;;2.30;;
16837;SDS011;19510;54.486;9.046;2023-07-30T11:26:58;7.18;;;1.75;;
16837;SDS011;19510;54.486;9.046;2023-07-30T11:29:26;8.73;;;1.98;;
16837;SDS011;19510;54.486;9.046;2023-07-30T11:31:55;8.77;;;2.65;;
16837;SDS011;19510;54.486;9.046;2023-07-30T11:34:22;10.80;;;2.50;;
16837;SDS011;19510;54.486;9.046;2023-07-30T11:36:48;6.70;;;2.08;;
16837;SDS011;19510;54.486;9.046;2023-07-30T11:39:14;9.90;;;2.47;;
16837;SDS011;19510;54.486;9.046;2023-07-30T11:41:40;12.25;;;2.58;;
16837;SDS011;19510;54.486;9.046;2023-07-30T11:44:07;10.30;;;2.33;;
16837;SDS011;19510;54.486;9.046;2023-07-30T11:46:32;10.15;;;2.22;;
16837;SDS011;19510;54.486;9.046;2023-07-30T11:49:10;6.57;;;1.40;;
16837;SDS011;19510;54.486;9.046;2023-07-30T11:51:38;5.18;;;1.65;;
16837;SDS011;19510;54.486;9.046;2023-07-30T11:54:04;5.32;;;1.70;;
16837;SDS011;19510;54.486;9.046;2023-07-30T11:56:34;6.60;;;1.30;;
16837;SDS011;19510;54.486;9.046;2023-07-30T11:59:01;5.05;;;1.70;;
16837;SDS011;19510;54.486;9.046;2023-07-30T12:01:30;8.05;;;1.58;;
16837;SDS011;19510;54.486;9.046;2023-07-30T12:04:00;9.73;;;1.70;;
16837;SDS011;19510;54.486;9.046;2023-07-30T12:09:17;8.20;;;1.92;;
16837;SDS011;19510;54.486;9.046;2023-07-30T12:11:53;9.80;;;1.55;;
16837;SDS011;19510;54.486;9.046;2023-07-30T12:14:29;5.80;;;1.90;;
16837;SDS011;19510;54.486;9.046;2023-07-30T12:17:09;7.85;;;1.63;;
16837;SDS011;19510;54.486;9.046;2023-07-30T12:19:35;6.32;;;1.42;;
16837;SDS011;19510;54.486;9.046;2023-07-30T12:22:01;5.10;;;1.58;;
16837;SDS011;19510;54.486;9.046;2023-07-30T12:24:27;11.70;;;2.03;;
16837;SDS011;19510;54.486;9.046;2023-07-30T12:26:53;11.38;;;2.08;;
16837;SDS011;19510;54.486;9.046;2023-07-30T12:29:18;5.80;;;2.15;;
16837;SDS011;19510;54.486;9.046;2023-07-30T12:31:44;8.23;;;2.35;;
16837;SDS011;19510;54.486;9.046;2023-07-30T12:34:11;12.27;;;2.63;;
16837;SDS011;19510;54.486;9.046;2023-07-30T12:36:37;12.00;;;3.10;;
16837;SDS011;19510;54.486;9.046;2023-07-30T12:39:02;11.05;;;2.40;;
16837;SDS011;19510;54.486;9.046;2023-07-30T12:41:29;7.88;;;1.75;;
16837;SDS011;19510;54.486;9.046;2023-07-30T12:43:55;6.70;;;2.33;;
16837;SDS011;19510;54.486;9.046;2023-07-30T12:46:22;8.57;;;2.00;;
16837;SDS011;19510;54.486;9.046;2023-07-30T12:48:48;6.57;;;2.47;;
16837;SDS011;19510;54.486;9.046;2023-07-30T12:51:14;7.63;;;1.77;;
16837;SDS011;19510;54.486;9.046;2023-07-30T12:53:40;7.75;;;1.52;;
16837;SDS011;19510;54.486;9.046;2023-07-30T12:56:05;10.90;;;2.08;;
16837;SDS011;19510;54.486;9.046;2023-07-30T12:58:31;11.93;;;2.63;;
16837;SDS011;19510;54.486;9.046;2023-07-30T13:00:57;7.15;;;2.63;;
16837;SDS011;19510;54.486;9.046;2023-07-30T13:03:25;9.40;;;2.25;;
16837;SDS011;19510;54.486;9.046;2023-07-30T13:05:50;8.23;;;2.10;;
16837;SDS011;19510;54.486;9.046;2023-07-30T13:08:16;10.77;;;2.45;;
16837;SDS011;19510;54.486;9.046;2023-07-30T13:10:41;12.95;;;1.80;;
16837;SDS011;19510;54.486;9.046;2023-07-30T13:13:07;7.78;;;2.00;;
16837;SDS011;19510;54.486;9.046;2023-07-30T13:15:33;9.88;;;1.92;;
16837;SDS011;19510;54.486;9.046;2023-07-30T13:21:20;15.82;;;2.40;;
16837;SDS011;19510;54.486;9.046;2023-07-30T13:23:46;11.55;;;2.53;;
16837;SDS011;19510;54.486;9.046;2023-07-30T13:26:12;12.15;;;2.53;;
16837;SDS011;19510;54.486;9.046;2023-07-30T13:28:37;11.43;;;2.40;;
16837;SDS011;19510;54.486;9.046;2023-07-30T13:31:03;14.07;;;2.53;;
16837;SDS011;19510;54.486;9.046;2023-07-30T13:33:29;7.30;;;2.67;;
16837;SDS011;19510;54.486;9.046;2023-07-30T13:35:55;10.35;;;2.38;;
16837;SDS011;19510;54.486;9.046;2023-07-30T13:38:20;11.85;;;2.50;;
16837;SDS011;19510;54.486;9.046;2023-07-30T13:40:47;9.05;;;2.13;;
16837;SDS011;19510;54.486;9.046;2023-07-30T13:43:13;10.07;;;2.58;;
16837;SDS011;19510;54.486;9.046;2023-07-30T13:45:38;11.85;;;2.47;;
16837;SDS011;19510;54.486;9.046;2023-07-30T13:48:04;11.63;;;2.75;;
16837;SDS011;19510;54.486;9.046;2023-07-30T13:50:30;11.55;;;2.30;;
16837;SDS011;19510;54.486;9.046;2023-07-30T13:52:55;14.40;;;2.50;;
16837;SDS011;19510;54.486;9.046;2023-07-30T13:55:21;11.30;;;2.10;;
16837;SDS011;19510;54.486;9.046;2023-07-30T13:57:47;11.52;;;2.40;;
16837;SDS011;19510;54.486;9.046;2023-07-30T14:00:13;9.40;;;2.30;;
16837;SDS011;19510;54.486;9.046;2023-07-30T14:02:39;12.20;;;2.42;;
16837;SDS011;19510;54.486;9.046;2023-07-30T14:05:04;11.65;;;2.60;;
16837;SDS011;19510;54.486;9.046;2023-07-30T14:07:30;12.85;;;3.20;;
16837;SDS011;19510;54.486;9.046;2023-07-30T14:09:56;10.10;;;2.45;;
16837;SDS011;19510;54.486;9.046;2023-07-30T14:12:21;10.50;;;2.53;;
16837;SDS011;19510;54.486;9.046;2023-07-30T14:14:47;8.48;;;2.15;;
16837;SDS011;19510;54.486;9.046;2023-07-30T14:17:13;14.40;;;2.85;;
16837;SDS011;19510;54.486;9.046;2023-07-30T14:19:38;10.13;;;2.47;;
16837;SDS011;19510;54.486;9.046;2023-07-30T14:22:04;9.95;;;2.53;;
16837;SDS011;19510;54.486;9.046;2023-07-30T14:24:30;12.38;;;2.58;;
16837;SDS011;19510;54.486;9.046;2023-07-30T14:26:56;14.82;;;2.72;;
16837;SDS011;19510;54.486;9.046;2023-07-30T14:29:22;11.68;;;2.20;;
16837;SDS011;19510;54.486;9.046;2023-07-30T14:31:47;10.88;;;3.08;;
16837;SDS011;19510;54.486;9.046;2023-07-30T14:34:13;10.45;;;1.85;;
16837;SDS011;19510;54.486;9.046;2023-07-30T14:36:39;11.25;;;2.33;;
16837;SDS011;19510;54.486;9.046;2023-07-30T14:39:05;9.65;;;2.78;;
16837;SDS011;19510;54.486;9.046;2023-07-30T14:41:30;9.30;;;2.70;;
16837;SDS011;19510;54.486;9.046;2023-07-30T14:43:59;8.07;;;1.85;;
16837;SDS011;19510;54.486;9.046;2023-07-30T14:46:24;10.80;;;2.08;;
16837;SDS011;19510;54.486;9.046;2023-07-30T14:48:52;7.22;;;1.70;;
16837;SDS011;19510;54.486;9.046;2023-07-30T14:51:18;8.23;;;1.60;;
16837;SDS011;19510;54.486;9.046;2023-07-30T14:53:44;7.82;;;1.90;;
16837;SDS011;19510;54.486;9.046;2023-07-30T14:56:10;5.57;;;1.75;;
16837;SDS011;19510;54.486;9.046;2023-07-30T14:58:35;8.07;;;1.42;;